createdAt,value
2022-08-03T00:01:25.602Z,100318.31
2022-08-03T00:03:52.139Z,100318.78
2022-08-03T00:06:18.776Z,100322.56
2022-08-03T00:08:45.436Z,100317.91
2022-08-03T00:11:12.043Z,100327.56
2022-08-03T00:13:38.730Z,100322.16
2022-08-03T00:16:05.497Z,100321.53
2022-08-03T00:18:32.117Z,100330.22
2022-08-03T00:20:58.772Z,100330.66
2022-08-03T00:23:25.357Z,100338.72
2022-08-03T00:25:52.147Z,100325.69
2022-08-03T00:28:18.719Z,100327.44
2022-08-03T00:30:45.350Z,100321.06
2022-08-03T00:33:11.910Z,100320.03
2022-08-03T00:35:50.692Z,100325.03
2022-08-03T00:38:18.379Z,100318.69
2022-08-03T00:40:45.021Z,100329.25
2022-08-03T00:43:11.632Z,100322.81
2022-08-03T00:45:41.356Z,100327.94
2022-08-03T00:48:29.803Z,100324.09
2022-08-03T00:50:57.070Z,100319.50
2022-08-03T00:53:24.486Z,100321.06
2022-08-03T00:55:51.262Z,100320.16
2022-08-03T00:58:17.935Z,100327.81
2022-08-03T01:00:44.473Z,100326.13
2022-08-03T01:03:12.146Z,100322.94
2022-08-03T01:06:12.985Z,100317.88
2022-08-03T01:09:02.899Z,100317.28
2022-08-03T01:12:00.020Z,100317.28
2022-08-03T01:14:32.573Z,100322.28
2022-08-03T01:17:10.514Z,100311.81
2022-08-03T01:19:56.378Z,100318.50
2022-08-03T01:22:35.221Z,100320.50
2022-08-03T01:25:38.714Z,100319.25
2022-08-03T01:28:53.848Z,100313.81
2022-08-03T01:31:26.089Z,100310.13
2022-08-03T01:33:59.349Z,100309.88
2022-08-03T01:36:35.310Z,100316.47
2022-08-03T01:39:09.298Z,100315.47
2022-08-03T01:41:42.488Z,100309.03
2022-08-03T01:44:29.522Z,100306.25
2022-08-03T01:46:59.922Z,100305.59
2022-08-03T01:49:30.395Z,100307.22
2022-08-03T01:52:04.119Z,100295.25
2022-08-03T01:54:40.950Z,100295.72
2022-08-03T01:57:09.586Z,100309.41
2022-08-03T01:59:37.541Z,100300.69
2022-08-03T02:02:31.751Z,100301.81
2022-08-03T02:04:55.584Z,100295.72
2022-08-03T02:07:23.849Z,100287.38
2022-08-03T02:09:55.085Z,100296.03
2022-08-03T02:12:25.103Z,100283.94
2022-08-03T02:14:51.992Z,100276.69
2022-08-03T02:17:39.210Z,100264.38
2022-08-03T02:20:07.453Z,100281.75
2022-08-03T02:22:34.885Z,100287.97
2022-08-03T02:25:01.818Z,100285.56
2022-08-03T02:27:32.296Z,100283.41
2022-08-03T02:30:05.447Z,100284.41
2022-08-03T02:32:36.717Z,100283.88
2022-08-03T02:35:06.942Z,100286.88
2022-08-03T02:37:37.847Z,100286.16
2022-08-03T02:40:11.851Z,100281.56
2022-08-03T02:42:40.313Z,100285.31
2022-08-03T02:45:12.451Z,100290.09
2022-08-03T02:47:54.147Z,100282.56
2022-08-03T02:50:23.191Z,100286.81
2022-08-03T02:52:52.023Z,100284.72
2022-08-03T02:55:20.480Z,100285.78
2022-08-03T02:57:47.949Z,100291.69
2022-08-03T03:00:27.695Z,100290.97
2022-08-03T03:03:00.309Z,100300.44
2022-08-03T03:05:56.299Z,100300.28
2022-08-03T03:08:17.674Z,100300.63
2022-08-03T03:10:46.641Z,100299.03
2022-08-03T03:13:16.279Z,100296.25
2022-08-03T03:15:45.184Z,100303.97
2022-08-03T03:18:13.013Z,100303.19
2022-08-03T03:20:40.943Z,100301.00
2022-08-03T03:23:09.313Z,100305.88
2022-08-03T03:25:36.477Z,100288.66
2022-08-03T03:28:03.937Z,100296.31
2022-08-03T03:30:33.480Z,100305.81
2022-08-03T03:33:00.724Z,100305.81
2022-08-03T03:35:27.796Z,100312.19
2022-08-03T03:37:54.728Z,100315.06
2022-08-03T03:40:22.272Z,100298.19
2022-08-03T03:42:50.143Z,100308.97
2022-08-03T03:45:16.969Z,100301.91
2022-08-03T03:47:43.589Z,100306.81
2022-08-03T03:50:11.029Z,100312.31
2022-08-03T03:52:37.706Z,100306.34
2022-08-03T03:55:04.664Z,100307.94
2022-08-03T03:57:31.212Z,100303.59
2022-08-03T03:59:57.845Z,100317.00
2022-08-03T04:02:24.615Z,100306.59
2022-08-03T04:05:09.544Z,100313.84
2022-08-03T04:08:10.488Z,100313.84
2022-08-03T04:11:02.650Z,100304.19
2022-08-03T04:13:36.837Z,100312.25
2022-08-03T04:16:05.087Z,100312.44
2022-08-03T04:18:34.830Z,100320.47
2022-08-03T04:21:08.678Z,100320.91
2022-08-03T04:23:40.110Z,100316.94
2022-08-03T04:26:10.048Z,100311.47
2022-08-03T04:28:38.567Z,100323.75
2022-08-03T04:31:07.334Z,100317.47
2022-08-03T04:33:37.209Z,100317.66
2022-08-03T04:36:08.937Z,100328.78
2022-08-03T04:38:55.602Z,100330.69
2022-08-03T04:41:24.826Z,100330.88
2022-08-03T04:43:55.956Z,100328.78
2022-08-03T04:46:26.173Z,100334.69
2022-08-03T04:48:53.648Z,100332.31
2022-08-03T04:51:20.520Z,100338.44
2022-08-03T04:53:47.338Z,100336.94
2022-08-03T04:56:13.879Z,100335.19
2022-08-03T04:58:40.481Z,100336.91
2022-08-03T05:01:07.591Z,100333.91
2022-08-03T05:03:34.190Z,100335.25
2022-08-03T05:06:09.801Z,100330.81
2022-08-03T05:08:46.429Z,100331.88
2022-08-03T05:11:16.360Z,100333.69
2022-08-03T05:13:44.713Z,100313.63
2022-08-03T05:16:12.367Z,100324.00
2022-08-03T05:18:38.897Z,100321.97
2022-08-03T05:21:05.640Z,100326.41
2022-08-03T05:23:32.234Z,100327.84
2022-08-03T05:25:58.820Z,100324.34
2022-08-03T05:28:25.389Z,100331.22
2022-08-03T05:30:51.962Z,100319.25
2022-08-03T05:33:18.543Z,100325.28
2022-08-03T05:35:57.860Z,100326.09
2022-08-03T05:38:34.169Z,100335.28
2022-08-03T05:41:21.021Z,100338.69
2022-08-03T05:43:49.247Z,100334.31
2022-08-03T05:46:16.151Z,100340.44
2022-08-03T05:48:43.129Z,100343.50
2022-08-03T05:51:13.537Z,100345.50
2022-08-03T05:53:41.728Z,100347.03
2022-08-03T05:56:14.965Z,100338.28
2022-08-03T05:58:48.409Z,100343.75
2022-08-03T06:01:16.849Z,100343.97
2022-08-03T06:03:43.894Z,100336.97
2022-08-03T06:06:11.727Z,100343.97
2022-08-03T06:08:39.093Z,100346.84
2022-08-03T06:11:05.689Z,100354.44
2022-08-03T06:13:32.492Z,100349.63
2022-08-03T06:15:59.037Z,100345.19
2022-08-03T06:18:25.818Z,100345.19
2022-08-03T06:20:53.026Z,100350.97
2022-08-03T06:23:20.019Z,100350.03
2022-08-03T06:25:47.240Z,100362.03
2022-08-03T06:28:42.669Z,100354.16
2022-08-03T06:31:01.899Z,100349.97
2022-08-03T06:34:31.385Z,100351.38
2022-08-03T06:36:15.697Z,100350.91
2022-08-03T06:38:42.486Z,100347.31
2022-08-03T06:41:09.113Z,100352.72
2022-08-03T06:44:03.410Z,100356.34
2022-08-03T06:46:25.984Z,100354.34
2022-08-03T06:48:53.213Z,100353.56
2022-08-03T06:51:19.892Z,100349.81
2022-08-03T06:53:46.445Z,100366.53
2022-08-03T06:56:13.042Z,100356.94
2022-08-03T06:58:39.611Z,100362.47
2022-08-03T07:01:06.211Z,100355.84
2022-08-03T07:03:32.759Z,100359.78
2022-08-03T07:05:59.751Z,100359.94
2022-08-03T07:08:33.542Z,100361.97
2022-08-03T07:11:01.427Z,100353.59
2022-08-03T07:13:28.021Z,100362.09
2022-08-03T07:15:56.301Z,100354.19
2022-08-03T07:18:27.573Z,100363.47
2022-08-03T07:20:56.507Z,100341.72
2022-08-03T07:23:23.228Z,100360.44
2022-08-03T07:25:50.983Z,100354.41
2022-08-03T07:28:18.122Z,100356.25
2022-08-03T07:30:44.867Z,100358.28
2022-08-03T07:33:11.630Z,100353.19
2022-08-03T07:35:38.604Z,100358.22
2022-08-03T07:38:05.375Z,100361.31
2022-08-03T07:40:32.289Z,100346.72
2022-08-03T07:45:26.934Z,100357.81
2022-08-03T07:47:54.219Z,100348.47
2022-08-03T07:50:22.040Z,100356.28
2022-08-03T07:52:49.940Z,100344.91
2022-08-03T07:55:18.326Z,100355.00
2022-08-03T07:57:45.053Z,100354.63
2022-08-03T08:00:19.579Z,100357.47
2022-08-03T08:02:46.528Z,100351.41
2022-08-03T08:05:13.179Z,100353.66
2022-08-03T08:07:40.186Z,100351.63
2022-08-03T08:10:08.379Z,100354.38
2022-08-03T08:12:35.071Z,100359.97
2022-08-03T08:15:02.071Z,100354.56
2022-08-03T08:17:28.739Z,100340.97
2022-08-03T08:19:55.303Z,100352.47
2022-08-03T08:22:28.064Z,100351.38
2022-08-03T08:24:56.867Z,100353.03
2022-08-03T08:27:23.691Z,100357.66
2022-08-03T08:29:54.604Z,100352.69
2022-08-03T08:32:23.558Z,100354.34
2022-08-03T08:34:50.231Z,100352.41
2022-08-03T08:37:16.863Z,100352.63
2022-08-03T08:39:43.491Z,100319.69
2022-08-03T08:42:10.535Z,100351.63
2022-08-03T08:44:37.132Z,100356.59
2022-08-03T08:47:04.996Z,100352.50
2022-08-03T08:49:35.791Z,100347.34
2022-08-03T08:52:04.296Z,100348.19
2022-08-03T08:54:52.405Z,100348.56
2022-08-03T08:57:40.713Z,100350.53
2022-08-03T09:00:10.863Z,100341.38
2022-08-03T09:02:37.498Z,100353.75
2022-08-03T09:05:07.527Z,100345.69
2022-08-03T09:07:34.768Z,100340.09
2022-08-03T09:10:11.872Z,100351.34
2022-08-03T09:12:43.147Z,100352.72
2022-08-03T09:15:26.476Z,100349.06
2022-08-03T09:17:56.354Z,100357.03
2022-08-03T09:20:25.596Z,100343.97
2022-08-03T09:23:51.455Z,100352.94
2022-08-03T09:26:01.660Z,100336.13
2022-08-03T09:28:52.678Z,100336.47
2022-08-03T09:31:49.737Z,100338.78
2022-08-03T09:34:17.748Z,100330.22
2022-08-03T09:36:49.832Z,100332.13
2022-08-03T09:39:17.551Z,100333.72
2022-08-03T09:41:49.323Z,100335.31
2022-08-03T09:44:25.296Z,100341.88
2022-08-03T09:46:57.038Z,100325.75
2022-08-03T09:49:25.052Z,100336.47
2022-08-03T09:52:32.073Z,100329.97
2022-08-03T09:54:39.474Z,100333.09
2022-08-03T09:57:06.150Z,100335.50
2022-08-03T09:59:33.647Z,100337.84
2022-08-03T10:02:00.770Z,100327.19
2022-08-03T10:04:27.752Z,100313.44
2022-08-03T10:07:09.418Z,100319.50
2022-08-03T10:09:37.644Z,100316.06
2022-08-03T10:12:09.651Z,100317.13
2022-08-03T10:14:41.990Z,100315.63
2022-08-03T10:17:09.747Z,100303.34
2022-08-03T10:19:36.713Z,100301.06
2022-08-03T10:22:28.021Z,100311.50
2022-08-03T10:25:06.537Z,100309.91
2022-08-03T10:27:46.959Z,100308.09
2022-08-03T10:30:14.448Z,100304.97
2022-08-03T10:32:51.167Z,100308.34
2022-08-03T10:35:21.605Z,100296.88
2022-08-03T10:38:09.779Z,100302.38
2022-08-03T10:40:58.669Z,100302.09
2022-08-03T10:43:35.337Z,100290.63
2022-08-03T10:46:05.206Z,100298.69
2022-08-03T10:48:32.688Z,100295.06
2022-08-03T10:50:59.719Z,100295.06
2022-08-03T10:53:37.526Z,100296.91
2022-08-03T10:56:48.108Z,100297.91
2022-08-03T10:59:14.657Z,100296.59
2022-08-03T11:02:00.255Z,100302.59
2022-08-03T11:04:29.785Z,100288.03
2022-08-03T11:07:18.533Z,100293.22
2022-08-03T11:09:50.188Z,100293.25
2022-08-03T11:12:30.160Z,100283.31
2022-08-03T11:15:07.863Z,100281.50
2022-08-03T11:17:46.408Z,100284.63
2022-08-03T11:20:55.055Z,100281.97
2022-08-03T11:24:04.914Z,100285.31
2022-08-03T11:26:34.055Z,100279.81
2022-08-03T11:29:29.875Z,100288.91
2022-08-03T11:31:57.113Z,100284.47
2022-08-03T11:34:24.779Z,100278.50
2022-08-03T11:37:25.351Z,100282.47
2022-08-03T11:39:55.448Z,100280.19
2022-08-03T11:42:24.997Z,100269.28
2022-08-03T11:44:52.275Z,100268.97
2022-08-03T11:47:20.930Z,100262.72
2022-08-03T11:49:49.276Z,100269.75
2022-08-03T11:52:17.872Z,100269.75
2022-08-03T11:54:44.635Z,100255.94
2022-08-03T11:57:11.781Z,100250.19
2022-08-03T11:59:38.804Z,100260.59
2022-08-03T12:02:16.107Z,100256.16
2022-08-03T12:04:58.398Z,100260.28
2022-08-03T12:08:03.535Z,100245.81
2022-08-03T12:10:16.659Z,100249.25
2022-08-03T12:12:46.370Z,100254.47
2022-08-03T12:15:13.598Z,100246.13
2022-08-03T12:17:41.425Z,100245.78
2022-08-03T12:20:10.461Z,100258.44
2022-08-03T12:22:39.451Z,100242.28
2022-08-03T12:25:08.075Z,100251.06
2022-08-03T12:27:34.886Z,100243.63
2022-08-03T12:30:03.182Z,100241.56
2022-08-03T12:32:31.037Z,100235.72
2022-08-03T12:35:01.310Z,100239.88
2022-08-03T12:37:29.526Z,100236.38
2022-08-03T12:40:07.868Z,100237.34
2022-08-03T12:42:38.756Z,100233.94
2022-08-03T12:45:27.735Z,100233.44
2022-08-03T12:47:57.211Z,100231.16
2022-08-03T12:50:26.853Z,100239.69
2022-08-03T12:52:53.597Z,100233.09
2022-08-03T12:55:21.575Z,100226.28
2022-08-03T12:57:48.285Z,100228.78
2022-08-03T13:00:28.889Z,100230.22
2022-08-03T13:03:38.302Z,100224.13
2022-08-03T13:05:52.148Z,100231.31
2022-08-03T13:08:23.916Z,100222.72
2022-08-03T13:10:51.137Z,100231.16
2022-08-03T13:13:17.800Z,100224.72
2022-08-03T13:15:48.099Z,100230.16
2022-08-03T13:18:17.356Z,100231.31
2022-08-03T13:20:44.376Z,100226.72
2022-08-03T13:23:15.525Z,100224.47
2022-08-03T13:25:55.686Z,100224.22
2022-08-03T13:28:23.381Z,100226.72
2022-08-03T13:30:50.019Z,100222.19
2022-08-03T13:33:16.835Z,100217.09
2022-08-03T13:35:43.443Z,100205.38
2022-08-03T13:38:10.200Z,100207.09
2022-08-03T13:40:42.197Z,100215.16
2022-08-03T13:43:09.157Z,100215.97
2022-08-03T13:45:36.219Z,100209.25
2022-08-03T13:48:02.838Z,100214.69
2022-08-03T13:50:30.202Z,100206.84
2022-08-03T13:52:57.456Z,100211.81
2022-08-03T13:55:25.144Z,100209.41
2022-08-03T13:58:03.233Z,100205.50
2022-08-03T14:00:34.437Z,100197.31
2022-08-03T14:03:13.388Z,100199.94
2022-08-03T14:05:42.293Z,100197.47
2022-08-03T14:08:09.192Z,100203.28
2022-08-03T14:10:42.076Z,100195.56
2022-08-03T14:13:08.965Z,100187.66
2022-08-03T14:15:37.472Z,100190.66
2022-08-03T14:18:04.935Z,100194.50
2022-08-03T14:20:37.460Z,100192.50
2022-08-03T14:23:07.285Z,100189.25
2022-08-03T14:25:43.167Z,100189.25
2022-08-03T14:28:16.794Z,100186.50
2022-08-03T14:30:43.377Z,100182.19
2022-08-03T14:33:09.931Z,100176.66
2022-08-03T14:35:37.804Z,100176.09
2022-08-03T14:38:04.373Z,100191.41
2022-08-03T14:40:30.905Z,100176.53
2022-08-03T14:42:57.581Z,100173.22
2022-08-03T14:45:24.243Z,100176.66
2022-08-03T14:50:29.532Z,100167.22
2022-08-03T14:50:43.193Z,100173.34
2022-08-03T14:53:12.340Z,100172.22
2022-08-03T14:55:50.511Z,100162.13
2022-08-03T14:58:23.679Z,100162.13
2022-08-03T15:00:52.005Z,100161.59
2022-08-03T15:03:26.025Z,100163.09
2022-08-03T15:05:54.076Z,100151.84
2022-08-03T15:08:21.943Z,100156.97
2022-08-03T15:10:49.381Z,100145.22
2022-08-03T15:13:17.494Z,100154.16
2022-08-03T15:15:44.023Z,100137.50
2022-08-03T15:18:11.222Z,100152.75
2022-08-03T15:20:46.613Z,100155.75
2022-08-03T15:23:15.515Z,100151.28
2022-08-03T15:26:07.047Z,100149.81
2022-08-03T15:28:30.793Z,100143.56
2022-08-03T15:30:57.392Z,100145.81
2022-08-03T15:33:24.117Z,100132.22
2022-08-03T15:35:51.744Z,100140.50
2022-08-03T15:38:18.459Z,100128.16
2022-08-03T15:40:45.643Z,100137.81
2022-08-03T15:43:12.316Z,100140.03
2022-08-03T15:45:40.645Z,100140.59
2022-08-03T15:48:08.740Z,100139.72
2022-08-03T15:50:35.325Z,100123.03
2022-08-03T15:53:01.896Z,100132.84
2022-08-03T15:55:28.488Z,100129.44
2022-08-03T15:59:09.356Z,100141.59
2022-08-03T16:00:43.729Z,100136.94
2022-08-03T16:03:10.560Z,100130.06
2022-08-03T16:05:37.301Z,100124.66
2022-08-03T16:08:06.234Z,100125.25
2022-08-03T16:10:34.510Z,100131.63
2022-08-03T16:13:01.219Z,100119.53
2022-08-03T16:15:28.137Z,100123.22
2022-08-03T16:17:54.964Z,100127.19
2022-08-03T16:20:31.091Z,100114.66
2022-08-03T16:23:06.274Z,100115.78
2022-08-03T16:25:42.676Z,100121.88
2022-08-03T16:28:13.871Z,100111.75
2022-08-03T16:30:43.107Z,100085.03
2022-08-03T16:33:10.539Z,100106.97
2022-08-03T16:35:37.459Z,100111.91
2022-08-03T16:38:09.594Z,100109.88
2022-08-03T16:40:37.510Z,100107.03
2022-08-03T16:43:18.275Z,100102.88
2022-08-03T16:45:48.595Z,100114.41
2022-08-03T16:48:16.493Z,100113.34
2022-08-03T16:50:43.302Z,100110.53
2022-08-03T16:53:15.598Z,100112.66
2022-08-03T16:55:53.837Z,100109.25
2022-08-03T16:58:34.522Z,100115.06
2022-08-03T17:01:22.021Z,100118.72
2022-08-03T17:04:01.595Z,100105.16
2022-08-03T17:06:34.173Z,100114.59
2022-08-03T17:09:02.188Z,100084.41
2022-08-03T17:11:32.993Z,100103.69
2022-08-03T17:14:00.309Z,100120.88
2022-08-03T17:16:27.443Z,100117.78
2022-08-03T17:19:03.956Z,100119.31
2022-08-03T17:21:33.278Z,100110.25
2022-08-03T17:24:40.921Z,100098.03
2022-08-03T17:28:42.129Z,100119.63
2022-08-03T17:30:07.717Z,100111.31
2022-08-03T17:32:42.278Z,100118.59
2022-08-03T17:35:10.332Z,100126.44
2022-08-03T17:37:58.169Z,100132.94
2022-08-03T17:40:24.853Z,100124.38
2022-08-03T17:42:52.596Z,100124.38
2022-08-03T17:45:20.526Z,100133.22
2022-08-03T17:47:56.971Z,100126.97
2022-08-03T17:50:32.843Z,100128.53
2022-08-03T17:53:07.731Z,100134.00
2022-08-03T17:55:55.632Z,100133.75
2022-08-03T17:58:55.325Z,100139.47
2022-08-03T18:02:03.467Z,100141.31
2022-08-03T18:04:38.142Z,100142.63
2022-08-03T18:07:12.493Z,100145.75
2022-08-03T18:10:04.852Z,100147.03
2022-08-03T18:13:10.456Z,100141.56
2022-08-03T18:15:42.743Z,100149.13
2022-08-03T18:18:11.463Z,100138.19
2022-08-03T18:20:41.729Z,100144.72
2022-08-03T18:23:25.520Z,100149.38
2022-08-03T18:25:59.371Z,100145.69
2022-08-03T18:28:27.913Z,100153.75
2022-08-03T18:30:57.951Z,100164.16
2022-08-03T18:34:16.746Z,100149.28
2022-08-03T18:36:17.481Z,100159.19
2022-08-03T18:38:49.327Z,100159.97
2022-08-03T18:41:21.967Z,100170.09
2022-08-03T18:44:06.626Z,100166.94
2022-08-03T18:46:54.792Z,100171.38
2022-08-03T18:49:34.180Z,100162.25
2022-08-03T18:52:12.082Z,100171.06
2022-08-03T18:55:02.469Z,100169.41
2022-08-03T18:57:49.625Z,100165.75
2022-08-03T19:00:24.907Z,100180.34
2022-08-03T19:03:20.240Z,100166.44
2022-08-03T19:06:02.774Z,100181.34
2022-08-03T19:08:48.408Z,100178.59
2022-08-03T19:12:14.559Z,100176.63
2022-08-03T19:14:28.642Z,100183.66
2022-08-03T19:17:07.329Z,100182.31
2022-08-03T19:19:44.399Z,100183.09
2022-08-03T19:22:16.193Z,100179.13
2022-08-03T19:25:04.294Z,100181.47
2022-08-03T19:27:32.311Z,100177.44
2022-08-03T19:30:03.904Z,100179.06
2022-08-03T19:35:19.017Z,100173.16
2022-08-03T19:37:46.584Z,100169.53
2022-08-03T19:40:13.222Z,100179.31
2022-08-03T19:42:45.031Z,100174.97
2022-08-03T19:45:17.131Z,100174.41
2022-08-03T19:47:52.450Z,100175.72
2022-08-03T19:50:21.342Z,100179.50
2022-08-03T20:01:50.955Z,100189.34
2022-08-03T20:04:17.919Z,100182.88
2022-08-03T20:07:06.365Z,100183.72
2022-08-03T20:09:36.213Z,100197.31
2022-08-03T20:12:12.812Z,100188.25
2022-08-03T20:14:39.946Z,100192.53
2022-08-03T20:17:09.098Z,100197.28
2022-08-03T20:19:35.831Z,100185.75
2022-08-03T20:22:03.287Z,100189.09
2022-08-03T20:24:35.178Z,100197.13
2022-08-03T20:27:07.835Z,100188.88
2022-08-03T20:30:05.457Z,100189.63
2022-08-03T20:32:28.566Z,100197.91
2022-08-03T20:34:55.509Z,100191.97
2022-08-03T20:37:22.347Z,100189.63
2022-08-03T20:39:49.598Z,100196.41
2022-08-03T20:42:21.143Z,100182.19
2022-08-03T20:44:58.960Z,100192.56
2022-08-03T20:47:35.762Z,100200.84
2022-08-03T20:50:04.245Z,100197.78
2022-08-03T20:52:35.057Z,100188.06
2022-08-03T20:55:14.680Z,100190.16
2022-08-03T20:57:42.585Z,100196.91
2022-08-03T21:00:18.013Z,100200.56
2022-08-03T21:02:44.757Z,100202.19
2022-08-03T21:05:11.590Z,100192.38
2022-08-03T21:08:06.199Z,100200.44
2022-08-03T21:10:37.873Z,100193.91
2022-08-03T21:13:18.143Z,100198.91
2022-08-03T21:16:07.000Z,100190.25
2022-08-03T21:18:44.548Z,100189.28
2022-08-03T21:21:14.970Z,100194.00
2022-08-03T21:23:47.996Z,100192.72
2022-08-03T21:26:24.072Z,100194.78
2022-08-03T21:28:54.438Z,100189.56
2022-08-03T21:31:25.553Z,100197.63
2022-08-03T21:34:00.572Z,100197.84
2022-08-03T21:36:30.832Z,100199.69
2022-08-03T21:38:59.025Z,100197.19
2022-08-03T21:41:27.486Z,100207.97
2022-08-03T21:43:54.299Z,100201.13
2022-08-03T21:46:22.409Z,100209.41
2022-08-03T21:50:06.832Z,100207.38
2022-08-03T21:51:49.498Z,100199.66
2022-08-03T21:54:17.878Z,100199.47
2022-08-03T21:56:48.329Z,100203.69
2022-08-03T21:59:20.529Z,100201.50
2022-08-03T22:01:48.856Z,100204.59
2022-08-03T22:04:55.541Z,100203.22
2022-08-03T22:07:07.907Z,100192.19
2022-08-03T22:09:35.858Z,100202.09
2022-08-03T22:12:02.552Z,100195.72
2022-08-03T22:14:29.992Z,100195.88
2022-08-03T22:16:57.126Z,100194.88
2022-08-03T22:19:24.278Z,100205.56
2022-08-03T22:21:51.065Z,100201.88
2022-08-03T22:24:23.818Z,100200.69
2022-08-03T22:27:09.911Z,100201.97
2022-08-03T22:29:39.209Z,100198.28
2022-08-03T22:32:06.969Z,100201.97
2022-08-03T22:34:33.911Z,100205.25
2022-08-03T22:37:07.344Z,100206.44
2022-08-03T22:39:35.338Z,100193.94
2022-08-03T22:42:05.454Z,100199.78
2022-08-03T22:44:32.716Z,100199.44
2022-08-03T22:46:59.757Z,100210.28
2022-08-03T22:49:28.706Z,100202.03
2022-08-03T22:51:56.099Z,100203.44
2022-08-03T22:54:23.687Z,100209.41
2022-08-03T22:56:52.126Z,100202.63
2022-08-03T22:59:39.875Z,100200.78
2022-08-03T23:02:20.355Z,68515.09
2022-08-03T23:04:55.020Z,68515.09
2022-08-03T23:07:37.246Z,68515.09
2022-08-03T23:10:10.370Z,68515.09
2022-08-03T23:12:39.237Z,68515.09
2022-08-03T23:15:08.777Z,68515.09
2022-08-03T23:17:58.177Z,68515.09
2022-08-03T23:20:27.051Z,68515.09
2022-08-03T23:22:57.737Z,68515.09
2022-08-03T23:25:25.379Z,68515.09
2022-08-03T23:28:05.067Z,68515.09
2022-08-03T23:30:35.032Z,68515.09
2022-08-03T23:33:04.137Z,68515.09
2022-08-03T23:36:28.146Z,68515.09
2022-08-03T23:38:37.374Z,68515.09
2022-08-03T23:41:05.155Z,68515.09
2022-08-03T23:43:52.098Z,68515.09
2022-08-03T23:46:22.265Z,100208.53
2022-08-03T23:48:49.548Z,100208.59
2022-08-03T23:51:36.844Z,100219.59
2022-08-03T23:54:26.775Z,100220.56
2022-08-03T23:57:14.182Z,100195.53
